createdAt,value
2018-07-25T00:11:03.885Z,99.90
2018-07-25T00:30:22.528Z,99.90
2018-07-25T00:49:40.683Z,99.90
2018-07-25T01:28:40.651Z,99.90
2018-07-25T01:47:59.582Z,99.90
2018-07-25T02:27:29.313Z,99.90
2018-07-25T02:46:48.710Z,99.90
2018-07-25T03:05:52.781Z,99.90
2018-07-25T03:08:21.284Z,99.90
2018-07-25T03:10:53.187Z,99.90
2018-07-25T03:13:22.056Z,99.90
2018-07-25T03:16:06.312Z,99.90
2018-07-25T03:18:34.825Z,99.90
2018-07-25T03:21:03.590Z,99.90
2018-07-25T03:23:33.411Z,99.90
2018-07-25T03:26:02.099Z,99.90
2018-07-25T03:28:30.889Z,99.90
2018-07-25T03:31:00.195Z,99.90
2018-07-25T03:50:17.252Z,99.90
2018-07-25T04:09:35.471Z,99.90
2018-07-25T04:28:52.614Z,99.90
2018-07-25T05:08:15.509Z,99.90
2018-07-25T05:27:48.355Z,99.90
2018-07-25T06:06:57.923Z,99.90
2018-07-25T06:26:16.317Z,99.90
2018-07-25T06:45:34.853Z,99.90
2018-07-25T07:04:53.445Z,99.90
2018-07-25T07:24:38.378Z,99.90
2018-07-25T07:43:55.299Z,99.90
2018-07-25T08:03:13.140Z,99.90
2018-07-25T08:22:46.484Z,99.90
2018-07-25T08:42:19.707Z,99.90
2018-07-25T09:01:51.948Z,99.90
2018-07-25T09:41:08.660Z,99.90
2018-07-25T10:20:22.707Z,99.90
2018-07-25T10:40:25.193Z,99.90
2018-07-25T10:59:57.194Z,99.90
2018-07-25T11:38:52.023Z,96.70
2018-07-25T11:58:39.679Z,96.20
2018-07-25T12:17:57.073Z,94.70
2018-07-25T12:37:15.906Z,93.10
2018-07-25T12:56:49.154Z,89.90
2018-07-25T13:16:07.419Z,89.70
2018-07-25T13:35:25.774Z,85.50
2018-07-25T13:54:57.761Z,88.90
2018-07-25T14:14:44.419Z,86.70
2018-07-25T14:34:17.409Z,88.30
2018-07-25T14:53:36.044Z,88.20
2018-07-25T15:12:58.534Z,90.50
2018-07-25T15:32:30.571Z,90.50
2018-07-25T15:39:12.506Z,91.80
2018-07-25T15:41:41.573Z,91.10
2018-07-25T15:44:10.770Z,90.50
2018-07-25T15:46:39.359Z,90.20
2018-07-25T15:49:08.411Z,90.80
2018-07-25T15:51:37.569Z,91.00
2018-07-25T15:54:06.668Z,91.00
2018-07-25T15:56:35.460Z,91.50
2018-07-25T15:59:04.598Z,91.20
2018-07-25T16:01:33.194Z,91.40
2018-07-25T16:04:02.701Z,91.60
2018-07-25T16:06:31.437Z,92.00
2018-07-25T16:09:00.085Z,91.60
2018-07-25T16:11:28.695Z,92.40
2018-07-25T16:13:57.284Z,92.00
2018-07-25T16:16:25.869Z,92.00
2018-07-25T16:18:54.679Z,92.20
2018-07-25T16:21:23.253Z,93.00
2018-07-25T16:23:52.057Z,91.90
2018-07-25T16:26:20.694Z,92.10
2018-07-25T16:28:49.278Z,92.30
2018-07-25T16:31:17.839Z,92.40
2018-07-25T16:33:46.615Z,92.20
2018-07-25T16:36:15.227Z,91.40
2018-07-25T16:38:43.830Z,92.40
2018-07-25T16:41:12.381Z,92.00
2018-07-25T16:43:41.164Z,92.50
2018-07-25T16:46:09.746Z,92.30
2018-07-25T16:48:38.558Z,94.60
2018-07-25T16:51:07.151Z,94.20
2018-07-25T16:53:35.690Z,93.90
2018-07-25T16:56:04.222Z,94.70
2018-07-25T16:58:32.746Z,94.80
2018-07-25T17:01:01.302Z,94.60
2018-07-25T17:03:30.073Z,94.90
2018-07-25T17:05:58.611Z,95.00
2018-07-25T17:08:27.357Z,95.20
2018-07-25T17:10:55.983Z,95.60
2018-07-25T17:13:24.823Z,96.20
2018-07-25T17:15:53.412Z,96.60
2018-07-25T17:18:22.614Z,97.20
2018-07-25T17:20:52.648Z,97.60
2018-07-25T17:23:21.432Z,97.90
2018-07-25T17:25:49.939Z,98.40
2018-07-25T17:28:18.484Z,99.90
2018-07-25T17:30:47.092Z,99.60
2018-07-25T17:33:16.603Z,99.90
2018-07-25T17:35:45.152Z,99.90
2018-07-25T17:38:14.023Z,99.90
2018-07-25T17:40:42.738Z,99.90
2018-07-25T17:43:11.558Z,99.90
2018-07-25T17:45:40.165Z,99.90
2018-07-25T17:48:09.050Z,99.90
2018-07-25T17:53:06.124Z,99.90
2018-07-25T17:55:34.795Z,99.90
2018-07-25T17:58:03.483Z,99.90
2018-07-25T18:00:32.013Z,99.90
2018-07-25T18:03:00.784Z,99.90
2018-07-25T18:05:29.304Z,99.90
2018-07-25T18:07:58.058Z,99.90
2018-07-25T18:10:26.666Z,99.90
2018-07-25T18:13:00.626Z,99.90
2018-07-25T18:15:29.232Z,99.90
2018-07-25T18:17:57.830Z,99.90
2018-07-25T18:20:26.377Z,99.90
2018-07-25T18:22:55.029Z,99.90
2018-07-25T18:25:23.480Z,99.90
2018-07-25T18:27:52.376Z,99.90
2018-07-25T18:30:20.912Z,99.90
2018-07-25T18:32:49.657Z,99.90
2018-07-25T18:35:18.234Z,99.90
2018-07-25T18:37:47.032Z,99.90
2018-07-25T18:40:15.594Z,99.90
2018-07-25T18:42:45.025Z,99.90
2018-07-25T18:45:13.651Z,99.90
2018-07-25T18:47:42.512Z,99.90
2018-07-25T18:50:11.719Z,99.90
2018-07-25T18:52:40.495Z,99.90
2018-07-25T18:55:09.397Z,99.90
2018-07-25T18:57:38.002Z,99.90
2018-07-25T19:00:06.751Z,99.90
2018-07-25T19:02:35.377Z,99.90
2018-07-25T19:05:04.091Z,99.90
2018-07-25T19:07:33.105Z,99.90
2018-07-25T19:10:01.741Z,99.90
2018-07-25T19:12:30.466Z,99.90
2018-07-25T19:15:04.196Z,99.90
2018-07-25T19:17:33.041Z,99.90
2018-07-25T19:20:01.814Z,99.90
2018-07-25T19:22:30.479Z,99.90
2018-07-25T19:24:59.266Z,99.90
2018-07-25T19:27:28.161Z,99.90
2018-07-25T19:29:56.706Z,99.90
2018-07-25T19:32:25.341Z,99.90
2018-07-25T19:34:53.994Z,99.90
2018-07-25T19:37:22.649Z,99.90
2018-07-25T19:39:51.167Z,99.90
2018-07-25T19:42:20.050Z,99.90
2018-07-25T19:44:48.587Z,99.90
2018-07-25T19:47:17.314Z,99.90
2018-07-25T19:49:45.957Z,99.90
2018-07-25T19:52:14.607Z,99.90
2018-07-25T19:54:43.538Z,99.90
2018-07-25T19:57:12.272Z,99.90
2018-07-25T19:59:40.795Z,99.90
2018-07-25T20:02:09.356Z,99.90
2018-07-25T20:04:38.064Z,99.90
2018-07-25T20:07:06.954Z,99.90
2018-07-25T20:09:35.612Z,99.90
2018-07-25T20:12:04.283Z,99.90
2018-07-25T20:14:38.193Z,99.90
2018-07-25T20:17:06.976Z,99.90
2018-07-25T20:19:35.657Z,99.90
2018-07-25T20:24:33.139Z,99.90
2018-07-25T20:27:02.127Z,99.90
2018-07-25T20:29:30.841Z,99.90
2018-07-25T20:31:59.428Z,99.90
2018-07-25T20:34:27.919Z,99.90
2018-07-25T20:36:56.574Z,99.90
2018-07-25T20:39:25.137Z,99.90
2018-07-25T20:41:53.714Z,99.90
2018-07-25T20:44:22.250Z,99.90
2018-07-25T20:46:50.802Z,99.90
2018-07-25T20:49:19.332Z,99.90
2018-07-25T20:51:48.046Z,99.90
2018-07-25T20:54:16.678Z,99.90
2018-07-25T20:56:45.441Z,99.90
2018-07-25T20:59:14.007Z,99.90
2018-07-25T21:01:42.919Z,99.90
2018-07-25T21:04:11.539Z,99.90
2018-07-25T21:06:40.440Z,99.90
2018-07-25T21:09:09.347Z,99.90
2018-07-25T21:11:38.402Z,99.90
2018-07-25T21:14:07.012Z,99.90
2018-07-25T21:16:35.778Z,99.90
2018-07-25T21:19:04.528Z,99.90
2018-07-25T21:21:33.569Z,99.90
2018-07-25T21:24:02.241Z,99.90
2018-07-25T21:26:31.092Z,99.90
2018-07-25T21:28:59.669Z,99.90
2018-07-25T21:31:28.564Z,99.90
2018-07-25T21:33:57.118Z,99.90
2018-07-25T21:36:25.790Z,99.90
2018-07-25T21:38:54.471Z,99.90
2018-07-25T21:41:23.300Z,99.90
2018-07-25T21:43:51.972Z,99.90
2018-07-25T21:46:20.838Z,99.90
2018-07-25T21:48:49.347Z,99.90
2018-07-25T21:51:18.140Z,99.90
2018-07-25T21:53:46.841Z,99.90
2018-07-25T21:56:15.687Z,99.90
2018-07-25T21:58:44.187Z,99.90
2018-07-25T22:01:16.579Z,99.90
2018-07-25T22:03:45.652Z,99.90
2018-07-25T22:06:15.183Z,99.90
2018-07-25T22:08:43.712Z,99.90
2018-07-25T22:11:12.402Z,99.90
2018-07-25T22:13:46.267Z,99.90
2018-07-25T22:16:15.064Z,99.90
2018-07-25T22:18:44.285Z,99.90
2018-07-25T22:21:12.805Z,99.90
2018-07-25T22:23:41.531Z,99.90
2018-07-25T22:26:10.299Z,99.90
2018-07-25T22:28:39.173Z,99.90
2018-07-25T22:31:07.924Z,99.90
2018-07-25T22:33:36.468Z,99.90
2018-07-25T22:36:05.341Z,99.90
2018-07-25T22:38:33.848Z,99.90
2018-07-25T22:41:02.709Z,99.90
2018-07-25T22:43:31.327Z,99.90
2018-07-25T22:46:00.172Z,99.90
2018-07-25T22:48:28.723Z,99.90
2018-07-25T22:50:57.475Z,99.90
2018-07-25T22:53:25.988Z,99.90
2018-07-25T22:55:55.016Z,99.90
2018-07-25T22:58:23.730Z,99.90
2018-07-25T23:00:52.257Z,99.90
2018-07-25T23:03:20.852Z,99.90
2018-07-25T23:05:49.579Z,99.90
2018-07-25T23:08:18.047Z,99.90
2018-07-25T23:10:46.756Z,99.90
2018-07-25T23:13:15.298Z,99.90
2018-07-25T23:15:44.141Z,99.90
2018-07-25T23:18:12.690Z,99.90
2018-07-25T23:20:41.410Z,99.90
2018-07-25T23:23:09.928Z,99.90
2018-07-25T23:25:38.718Z,99.90
2018-07-25T23:28:07.287Z,99.90
2018-07-25T23:30:36.088Z,99.90
2018-07-25T23:33:05.160Z,99.90
2018-07-25T23:35:33.873Z,99.90
2018-07-25T23:38:02.395Z,99.90
2018-07-25T23:40:30.954Z,99.90
2018-07-25T23:42:59.467Z,99.90
2018-07-25T23:45:28.208Z,99.90
2018-07-25T23:47:56.734Z,99.90
2018-07-25T23:50:25.245Z,99.90
2018-07-25T23:52:53.773Z,99.90
2018-07-25T23:55:22.342Z,99.90
2018-07-25T23:57:50.845Z,99.90
